Terminal Aerodrome Forecast
Issued by NWS

Current Version | Previous Version | Text Only | Print | Product List | Glossary On
Versions: 1 2 3 4 5 6 7 8 9 10 11 12 13 14 15 16 17 18 19 20 21 22 23 24 25 26 27
000
FTUS41 KRNK 251721
TAFBCB
TAF
KBCB 251721Z 2518/2618 00000KT P6SM SCT040 BKN180
     FM252000 26004KT P6SM VCTS BKN060CB
     FM260100 VRB03KT P6SM SCT050 BKN100
     FM260900 00000KT 4SM BR SCT015 BKN050
     FM261400 25007KT P6SM SCT020 BKN100=

USA.gov is the U.S. government's official web portal to all federal, state and local government web resources and services.